sensor_id;sensor_type;location;lat;lon;timestamp;P1;durP1;ratioP1;P2;durP2;ratioP2
83423;SDS011;73355;49.044;8.686;2024-01-30T00:01:39;11.35;;;6.30;;
83423;SDS011;73355;49.044;8.686;2024-01-30T00:04:04;11.02;;;5.75;;
83423;SDS011;73355;49.044;8.686;2024-01-30T00:06:29;12.67;;;5.97;;
83423;SDS011;73355;49.044;8.686;2024-01-30T00:08:55;14.00;;;6.03;;
83423;SDS011;73355;49.044;8.686;2024-01-30T00:11:20;15.37;;;6.47;;
83423;SDS011;73355;49.044;8.686;2024-01-30T00:13:46;14.27;;;6.43;;
83423;SDS011;73355;49.044;8.686;2024-01-30T00:16:23;12.52;;;6.72;;
83423;SDS011;73355;49.044;8.686;2024-01-30T00:18:50;14.60;;;6.53;;
83423;SDS011;73355;49.044;8.686;2024-01-30T00:23:41;10.97;;;5.70;;
83423;SDS011;73355;49.044;8.686;2024-01-30T00:26:07;13.77;;;6.77;;
83423;SDS011;73355;49.044;8.686;2024-01-30T00:28:32;13.23;;;6.57;;
83423;SDS011;73355;49.044;8.686;2024-01-30T00:30:57;14.40;;;6.60;;
83423;SDS011;73355;49.044;8.686;2024-01-30T00:33:22;10.70;;;5.90;;
83423;SDS011;73355;49.044;8.686;2024-01-30T00:35:48;14.73;;;5.73;;
83423;SDS011;73355;49.044;8.686;2024-01-30T00:38:13;12.70;;;5.50;;
83423;SDS011;73355;49.044;8.686;2024-01-30T00:40:38;14.60;;;5.90;;
83423;SDS011;73355;49.044;8.686;2024-01-30T00:43:04;13.40;;;5.63;;
83423;SDS011;73355;49.044;8.686;2024-01-30T00:45:29;13.17;;;6.40;;
83423;SDS011;73355;49.044;8.686;2024-01-30T00:47:54;13.67;;;6.40;;
83423;SDS011;73355;49.044;8.686;2024-01-30T00:50:19;12.17;;;5.77;;
83423;SDS011;73355;49.044;8.686;2024-01-30T00:52:45;12.40;;;5.93;;
83423;SDS011;73355;49.044;8.686;2024-01-30T00:55:10;15.13;;;6.13;;
83423;SDS011;73355;49.044;8.686;2024-01-30T00:57:36;14.20;;;6.47;;
83423;SDS011;73355;49.044;8.686;2024-01-30T01:00:01;11.10;;;5.88;;
83423;SDS011;73355;49.044;8.686;2024-01-30T01:02:28;13.25;;;5.82;;
83423;SDS011;73355;49.044;8.686;2024-01-30T01:04:53;12.68;;;5.80;;
83423;SDS011;73355;49.044;8.686;2024-01-30T01:07:18;13.40;;;5.93;;
83423;SDS011;73355;49.044;8.686;2024-01-30T01:09:43;11.50;;;5.47;;
83423;SDS011;73355;49.044;8.686;2024-01-30T01:12:09;12.30;;;5.60;;
83423;SDS011;73355;49.044;8.686;2024-01-30T01:14:34;12.20;;;5.70;;
83423;SDS011;73355;49.044;8.686;2024-01-30T01:17:01;11.65;;;5.35;;
83423;SDS011;73355;49.044;8.686;2024-01-30T01:19:26;9.70;;;5.17;;
83423;SDS011;73355;49.044;8.686;2024-01-30T01:21:51;9.83;;;4.77;;
83423;SDS011;73355;49.044;8.686;2024-01-30T01:24:17;10.07;;;4.65;;
83423;SDS011;73355;49.044;8.686;2024-01-30T01:26:42;10.37;;;5.07;;
83423;SDS011;73355;49.044;8.686;2024-01-30T01:29:07;8.97;;;4.43;;
83423;SDS011;73355;49.044;8.686;2024-01-30T01:31:37;9.13;;;4.75;;
83423;SDS011;73355;49.044;8.686;2024-01-30T01:34:08;12.55;;;4.88;;
83423;SDS011;73355;49.044;8.686;2024-01-30T01:36:37;8.25;;;4.35;;
83423;SDS011;73355;49.044;8.686;2024-01-30T01:39:03;8.17;;;3.90;;
83423;SDS011;73355;49.044;8.686;2024-01-30T01:41:31;8.48;;;4.10;;
83423;SDS011;73355;49.044;8.686;2024-01-30T01:43:57;8.13;;;4.22;;
83423;SDS011;73355;49.044;8.686;2024-01-30T01:46:22;8.73;;;4.32;;
83423;SDS011;73355;49.044;8.686;2024-01-30T01:48:48;8.70;;;4.27;;
83423;SDS011;73355;49.044;8.686;2024-01-30T01:51:14;8.48;;;4.43;;
83423;SDS011;73355;49.044;8.686;2024-01-30T01:53:40;11.27;;;5.00;;
83423;SDS011;73355;49.044;8.686;2024-01-30T01:56:05;9.68;;;4.60;;
83423;SDS011;73355;49.044;8.686;2024-01-30T01:58:31;10.45;;;5.00;;
83423;SDS011;73355;49.044;8.686;2024-01-30T02:00:57;9.85;;;4.47;;
83423;SDS011;73355;49.044;8.686;2024-01-30T02:03:24;10.52;;;4.32;;
83423;SDS011;73355;49.044;8.686;2024-01-30T02:05:50;10.27;;;4.27;;
83423;SDS011;73355;49.044;8.686;2024-01-30T02:10:41;7.37;;;4.17;;
83423;SDS011;73355;49.044;8.686;2024-01-30T02:13:06;10.30;;;4.35;;
83423;SDS011;73355;49.044;8.686;2024-01-30T02:15:31;7.40;;;4.10;;
83423;SDS011;73355;49.044;8.686;2024-01-30T02:17:57;9.17;;;4.57;;
83423;SDS011;73355;49.044;8.686;2024-01-30T02:20:23;7.83;;;4.23;;
83423;SDS011;73355;49.044;8.686;2024-01-30T02:22:49;10.20;;;4.63;;
83423;SDS011;73355;49.044;8.686;2024-01-30T02:25:16;9.93;;;4.47;;
83423;SDS011;73355;49.044;8.686;2024-01-30T02:27:41;8.57;;;4.07;;
83423;SDS011;73355;49.044;8.686;2024-01-30T02:30:07;6.90;;;3.90;;
83423;SDS011;73355;49.044;8.686;2024-01-30T02:32:32;11.68;;;4.22;;
83423;SDS011;73355;49.044;8.686;2024-01-30T02:34:58;9.73;;;4.57;;
83423;SDS011;73355;49.044;8.686;2024-01-30T02:37:23;8.90;;;4.37;;
83423;SDS011;73355;49.044;8.686;2024-01-30T02:39:48;9.07;;;4.53;;
83423;SDS011;73355;49.044;8.686;2024-01-30T02:42:13;7.43;;;3.47;;
83423;SDS011;73355;49.044;8.686;2024-01-30T02:44:39;6.77;;;3.50;;
83423;SDS011;73355;49.044;8.686;2024-01-30T02:47:04;7.73;;;4.07;;
83423;SDS011;73355;49.044;8.686;2024-01-30T02:49:29;8.37;;;3.67;;
83423;SDS011;73355;49.044;8.686;2024-01-30T02:51:54;7.03;;;3.33;;
83423;SDS011;73355;49.044;8.686;2024-01-30T02:54:21;7.30;;;3.30;;
83423;SDS011;73355;49.044;8.686;2024-01-30T02:56:46;7.37;;;3.30;;
83423;SDS011;73355;49.044;8.686;2024-01-30T02:59:13;6.28;;;3.33;;
83423;SDS011;73355;49.044;8.686;2024-01-30T03:01:42;8.27;;;3.67;;
83423;SDS011;73355;49.044;8.686;2024-01-30T03:04:09;8.10;;;3.75;;
83423;SDS011;73355;49.044;8.686;2024-01-30T03:06:34;7.80;;;4.17;;
83423;SDS011;73355;49.044;8.686;2024-01-30T03:08:59;6.90;;;3.47;;
83423;SDS011;73355;49.044;8.686;2024-01-30T03:11:24;6.90;;;3.90;;
83423;SDS011;73355;49.044;8.686;2024-01-30T03:13:50;6.97;;;3.50;;
83423;SDS011;73355;49.044;8.686;2024-01-30T03:16:15;7.10;;;3.67;;
83423;SDS011;73355;49.044;8.686;2024-01-30T03:18:40;7.90;;;3.80;;
83423;SDS011;73355;49.044;8.686;2024-01-30T03:21:05;7.03;;;3.63;;
83423;SDS011;73355;49.044;8.686;2024-01-30T03:23:31;5.73;;;3.53;;
83423;SDS011;73355;49.044;8.686;2024-01-30T03:25:57;6.75;;;3.72;;
83423;SDS011;73355;49.044;8.686;2024-01-30T03:28:23;6.75;;;3.45;;
83423;SDS011;73355;49.044;8.686;2024-01-30T03:30:48;7.47;;;3.47;;
83423;SDS011;73355;49.044;8.686;2024-01-30T03:33:13;6.70;;;3.23;;
83423;SDS011;73355;49.044;8.686;2024-01-30T03:35:38;6.90;;;3.27;;
83423;SDS011;73355;49.044;8.686;2024-01-30T03:38:04;7.27;;;3.57;;
83423;SDS011;73355;49.044;8.686;2024-01-30T03:40:29;5.43;;;3.35;;
83423;SDS011;73355;49.044;8.686;2024-01-30T03:42:54;7.10;;;3.60;;
83423;SDS011;73355;49.044;8.686;2024-01-30T03:45:20;6.10;;;3.20;;
83423;SDS011;73355;49.044;8.686;2024-01-30T03:47:45;6.87;;;3.33;;
83423;SDS011;73355;49.044;8.686;2024-01-30T03:50:10;7.27;;;3.27;;
83423;SDS011;73355;49.044;8.686;2024-01-30T03:52:35;6.93;;;3.50;;
83423;SDS011;73355;49.044;8.686;2024-01-30T03:55:01;7.27;;;3.20;;
83423;SDS011;73355;49.044;8.686;2024-01-30T03:57:26;8.88;;;3.55;;
83423;SDS011;73355;49.044;8.686;2024-01-30T03:59:51;7.20;;;3.57;;
83423;SDS011;73355;49.044;8.686;2024-01-30T04:02:17;7.70;;;3.30;;
83423;SDS011;73355;49.044;8.686;2024-01-30T04:04:42;6.63;;;3.20;;
83423;SDS011;73355;49.044;8.686;2024-01-30T04:07:08;7.63;;;3.60;;
83423;SDS011;73355;49.044;8.686;2024-01-30T04:09:33;7.83;;;3.30;;
83423;SDS011;73355;49.044;8.686;2024-01-30T04:11:58;6.43;;;3.13;;
83423;SDS011;73355;49.044;8.686;2024-01-30T04:14:23;8.97;;;3.20;;
83423;SDS011;73355;49.044;8.686;2024-01-30T04:16:49;5.63;;;3.20;;
83423;SDS011;73355;49.044;8.686;2024-01-30T04:19:14;6.93;;;3.17;;
83423;SDS011;73355;49.044;8.686;2024-01-30T04:21:39;5.97;;;3.10;;
83423;SDS011;73355;49.044;8.686;2024-01-30T04:24:05;6.63;;;3.28;;
83423;SDS011;73355;49.044;8.686;2024-01-30T04:26:30;7.88;;;3.45;;
83423;SDS011;73355;49.044;8.686;2024-01-30T04:28:55;8.60;;;3.27;;
83423;SDS011;73355;49.044;8.686;2024-01-30T04:31:20;6.37;;;3.23;;
83423;SDS011;73355;49.044;8.686;2024-01-30T04:33:46;8.77;;;3.63;;
83423;SDS011;73355;49.044;8.686;2024-01-30T04:36:11;8.43;;;3.37;;
83423;SDS011;73355;49.044;8.686;2024-01-30T04:38:37;7.40;;;3.13;;
83423;SDS011;73355;49.044;8.686;2024-01-30T04:41:03;8.77;;;4.20;;
83423;SDS011;73355;49.044;8.686;2024-01-30T04:43:29;7.75;;;3.60;;
83423;SDS011;73355;49.044;8.686;2024-01-30T04:45:55;7.13;;;3.33;;
83423;SDS011;73355;49.044;8.686;2024-01-30T04:48:20;6.87;;;3.13;;
83423;SDS011;73355;49.044;8.686;2024-01-30T04:50:45;6.87;;;3.33;;
83423;SDS011;73355;49.044;8.686;2024-01-30T04:53:10;6.80;;;3.27;;
83423;SDS011;73355;49.044;8.686;2024-01-30T04:55:36;7.23;;;3.50;;
83423;SDS011;73355;49.044;8.686;2024-01-30T04:58:01;6.60;;;3.40;;
83423;SDS011;73355;49.044;8.686;2024-01-30T05:00:26;7.15;;;3.85;;
83423;SDS011;73355;49.044;8.686;2024-01-30T05:02:52;7.60;;;3.47;;
83423;SDS011;73355;49.044;8.686;2024-01-30T05:05:17;7.60;;;3.67;;
83423;SDS011;73355;49.044;8.686;2024-01-30T05:07:42;7.57;;;3.23;;
83423;SDS011;73355;49.044;8.686;2024-01-30T05:10:07;6.77;;;3.10;;
83423;SDS011;73355;49.044;8.686;2024-01-30T05:12:33;6.75;;;3.28;;
83423;SDS011;73355;49.044;8.686;2024-01-30T05:14:59;7.40;;;3.30;;
83423;SDS011;73355;49.044;8.686;2024-01-30T05:17:24;7.00;;;3.03;;
83423;SDS011;73355;49.044;8.686;2024-01-30T05:19:49;7.40;;;3.30;;
83423;SDS011;73355;49.044;8.686;2024-01-30T05:22:14;7.70;;;3.47;;
83423;SDS011;73355;49.044;8.686;2024-01-30T05:24:40;7.28;;;3.13;;
83423;SDS011;73355;49.044;8.686;2024-01-30T05:27:06;7.82;;;3.50;;
83423;SDS011;73355;49.044;8.686;2024-01-30T05:29:31;6.77;;;3.17;;
83423;SDS011;73355;49.044;8.686;2024-01-30T05:31:56;7.33;;;3.60;;
83423;SDS011;73355;49.044;8.686;2024-01-30T05:34:21;8.33;;;3.37;;
83423;SDS011;73355;49.044;8.686;2024-01-30T05:36:47;8.37;;;3.33;;
83423;SDS011;73355;49.044;8.686;2024-01-30T05:39:12;7.30;;;3.50;;
83423;SDS011;73355;49.044;8.686;2024-01-30T05:41:38;7.20;;;3.15;;
83423;SDS011;73355;49.044;8.686;2024-01-30T05:44:03;8.27;;;3.30;;
83423;SDS011;73355;49.044;8.686;2024-01-30T05:46:29;7.63;;;3.50;;
83423;SDS011;73355;49.044;8.686;2024-01-30T05:48:54;8.07;;;3.70;;
83423;SDS011;73355;49.044;8.686;2024-01-30T05:51:19;6.70;;;3.50;;
83423;SDS011;73355;49.044;8.686;2024-01-30T05:53:44;6.73;;;3.20;;
83423;SDS011;73355;49.044;8.686;2024-01-30T05:56:10;7.97;;;3.80;;
83423;SDS011;73355;49.044;8.686;2024-01-30T05:58:35;7.60;;;3.87;;
83423;SDS011;73355;49.044;8.686;2024-01-30T06:01:02;9.30;;;3.72;;
83423;SDS011;73355;49.044;8.686;2024-01-30T06:03:28;9.88;;;3.75;;
83423;SDS011;73355;49.044;8.686;2024-01-30T06:05:53;8.77;;;4.00;;
83423;SDS011;73355;49.044;8.686;2024-01-30T06:08:18;7.97;;;3.97;;
83423;SDS011;73355;49.044;8.686;2024-01-30T06:10:44;11.02;;;4.95;;
83423;SDS011;73355;49.044;8.686;2024-01-30T06:13:09;8.47;;;4.27;;
83423;SDS011;73355;49.044;8.686;2024-01-30T06:15:34;8.50;;;4.40;;
83423;SDS011;73355;49.044;8.686;2024-01-30T06:17:59;8.67;;;4.30;;
83423;SDS011;73355;49.044;8.686;2024-01-30T06:20:25;7.10;;;4.30;;
83423;SDS011;73355;49.044;8.686;2024-01-30T06:22:50;7.53;;;3.80;;
83423;SDS011;73355;49.044;8.686;2024-01-30T06:25:15;10.23;;;4.00;;
83423;SDS011;73355;49.044;8.686;2024-01-30T06:27:41;10.15;;;4.00;;
83423;SDS011;73355;49.044;8.686;2024-01-30T06:30:07;10.10;;;4.03;;
83423;SDS011;73355;49.044;8.686;2024-01-30T06:32:32;7.03;;;3.88;;
83423;SDS011;73355;49.044;8.686;2024-01-30T06:34:59;9.27;;;4.30;;
83423;SDS011;73355;49.044;8.686;2024-01-30T06:37:25;8.35;;;3.85;;
83423;SDS011;73355;49.044;8.686;2024-01-30T06:39:50;10.67;;;4.20;;
83423;SDS011;73355;49.044;8.686;2024-01-30T06:42:17;14.55;;;4.65;;
83423;SDS011;73355;49.044;8.686;2024-01-30T06:44:42;16.23;;;5.83;;
83423;SDS011;73355;49.044;8.686;2024-01-30T06:47:07;12.40;;;4.87;;
83423;SDS011;73355;49.044;8.686;2024-01-30T06:49:32;13.17;;;5.10;;
83423;SDS011;73355;49.044;8.686;2024-01-30T06:51:58;12.80;;;5.10;;
83423;SDS011;73355;49.044;8.686;2024-01-30T06:54:23;10.47;;;4.30;;
83423;SDS011;73355;49.044;8.686;2024-01-30T06:56:48;11.13;;;4.57;;
83423;SDS011;73355;49.044;8.686;2024-01-30T06:59:13;7.80;;;4.03;;
83423;SDS011;73355;49.044;8.686;2024-01-30T07:01:39;8.27;;;3.60;;
83423;SDS011;73355;49.044;8.686;2024-01-30T07:04:04;7.23;;;3.17;;
83423;SDS011;73355;49.044;8.686;2024-01-30T07:06:29;6.53;;;3.53;;
83423;SDS011;73355;49.044;8.686;2024-01-30T07:08:54;8.97;;;3.63;;
83423;SDS011;73355;49.044;8.686;2024-01-30T07:11:20;7.00;;;3.73;;
83423;SDS011;73355;49.044;8.686;2024-01-30T07:13:52;7.30;;;3.28;;
83423;SDS011;73355;49.044;8.686;2024-01-30T07:16:17;7.50;;;3.35;;
83423;SDS011;73355;49.044;8.686;2024-01-30T07:18:45;9.17;;;3.70;;
83423;SDS011;73355;49.044;8.686;2024-01-30T07:21:11;5.05;;;3.33;;
83423;SDS011;73355;49.044;8.686;2024-01-30T07:23:36;8.97;;;3.57;;
83423;SDS011;73355;49.044;8.686;2024-01-30T07:26:04;6.30;;;3.50;;
83423;SDS011;73355;49.044;8.686;2024-01-30T07:28:32;8.98;;;3.65;;
83423;SDS011;73355;49.044;8.686;2024-01-30T07:30:58;8.23;;;3.83;;
83423;SDS011;73355;49.044;8.686;2024-01-30T07:33:23;7.60;;;3.80;;
83423;SDS011;73355;49.044;8.686;2024-01-30T07:35:48;6.50;;;3.67;;
83423;SDS011;73355;49.044;8.686;2024-01-30T07:38:14;7.03;;;3.63;;
83423;SDS011;73355;49.044;8.686;2024-01-30T07:40:39;10.40;;;3.57;;
83423;SDS011;73355;49.044;8.686;2024-01-30T07:43:04;9.47;;;3.87;;
83423;SDS011;73355;49.044;8.686;2024-01-30T07:45:29;8.37;;;3.77;;
83423;SDS011;73355;49.044;8.686;2024-01-30T07:48:00;7.47;;;3.30;;
83423;SDS011;73355;49.044;8.686;2024-01-30T07:50:26;9.10;;;3.53;;
83423;SDS011;73355;49.044;8.686;2024-01-30T07:52:51;6.65;;;3.40;;
83423;SDS011;73355;49.044;8.686;2024-01-30T07:55:19;6.13;;;3.63;;
83423;SDS011;73355;49.044;8.686;2024-01-30T07:57:46;7.75;;;3.50;;
83423;SDS011;73355;49.044;8.686;2024-01-30T08:00:16;8.70;;;4.03;;
83423;SDS011;73355;49.044;8.686;2024-01-30T08:02:42;9.93;;;4.30;;
83423;SDS011;73355;49.044;8.686;2024-01-30T08:05:07;9.17;;;3.70;;
83423;SDS011;73355;49.044;8.686;2024-01-30T08:07:34;8.88;;;4.30;;
83423;SDS011;73355;49.044;8.686;2024-01-30T08:09:59;7.73;;;4.60;;
83423;SDS011;73355;49.044;8.686;2024-01-30T08:12:25;7.97;;;4.10;;
83423;SDS011;73355;49.044;8.686;2024-01-30T08:14:50;7.77;;;4.13;;
83423;SDS011;73355;49.044;8.686;2024-01-30T08:17:15;9.57;;;4.25;;
83423;SDS011;73355;49.044;8.686;2024-01-30T08:19:46;9.18;;;4.35;;
83423;SDS011;73355;49.044;8.686;2024-01-30T08:22:12;8.35;;;3.75;;
83423;SDS011;73355;49.044;8.686;2024-01-30T08:24:37;8.70;;;4.43;;
83423;SDS011;73355;49.044;8.686;2024-01-30T08:27:03;8.23;;;4.27;;
83423;SDS011;73355;49.044;8.686;2024-01-30T08:29:30;8.15;;;4.22;;
83423;SDS011;73355;49.044;8.686;2024-01-30T08:31:56;8.55;;;4.00;;
83423;SDS011;73355;49.044;8.686;2024-01-30T08:34:25;8.88;;;4.47;;
83423;SDS011;73355;49.044;8.686;2024-01-30T08:36:50;8.30;;;4.03;;
83423;SDS011;73355;49.044;8.686;2024-01-30T08:39:16;9.98;;;4.68;;
83423;SDS011;73355;49.044;8.686;2024-01-30T08:41:41;8.27;;;4.43;;
83423;SDS011;73355;49.044;8.686;2024-01-30T08:44:06;9.97;;;4.60;;
83423;SDS011;73355;49.044;8.686;2024-01-30T08:46:35;8.50;;;4.35;;
83423;SDS011;73355;49.044;8.686;2024-01-30T08:49:01;10.05;;;4.32;;
83423;SDS011;73355;49.044;8.686;2024-01-30T08:51:26;11.80;;;4.13;;
83423;SDS011;73355;49.044;8.686;2024-01-30T08:53:51;9.40;;;4.37;;
83423;SDS011;73355;49.044;8.686;2024-01-30T08:56:18;8.38;;;4.47;;
83423;SDS011;73355;49.044;8.686;2024-01-30T08:58:44;10.90;;;4.67;;
83423;SDS011;73355;49.044;8.686;2024-01-30T09:01:18;9.63;;;4.33;;
83423;SDS011;73355;49.044;8.686;2024-01-30T09:03:43;9.65;;;4.43;;
83423;SDS011;73355;49.044;8.686;2024-01-30T09:06:10;11.68;;;4.07;;
83423;SDS011;73355;49.044;8.686;2024-01-30T09:08:36;8.60;;;4.35;;
83423;SDS011;73355;49.044;8.686;2024-01-30T09:11:08;10.93;;;4.13;;
83423;SDS011;73355;49.044;8.686;2024-01-30T09:13:36;9.63;;;4.72;;
83423;SDS011;73355;49.044;8.686;2024-01-30T09:16:02;10.43;;;4.80;;
83423;SDS011;73355;49.044;8.686;2024-01-30T09:18:28;9.95;;;4.65;;
83423;SDS011;73355;49.044;8.686;2024-01-30T09:20:53;10.73;;;4.78;;
83423;SDS011;73355;49.044;8.686;2024-01-30T09:23:19;7.97;;;4.55;;
83423;SDS011;73355;49.044;8.686;2024-01-30T09:25:45;8.13;;;4.33;;
83423;SDS011;73355;49.044;8.686;2024-01-30T09:28:13;10.77;;;5.13;;
83423;SDS011;73355;49.044;8.686;2024-01-30T09:30:44;12.18;;;5.88;;
83423;SDS011;73355;49.044;8.686;2024-01-30T09:33:09;13.88;;;6.00;;
83423;SDS011;73355;49.044;8.686;2024-01-30T09:35:35;12.20;;;5.77;;
83423;SDS011;73355;49.044;8.686;2024-01-30T09:38:01;12.70;;;6.32;;
83423;SDS011;73355;49.044;8.686;2024-01-30T09:40:26;11.90;;;6.15;;
83423;SDS011;73355;49.044;8.686;2024-01-30T09:42:54;11.63;;;6.13;;
83423;SDS011;73355;49.044;8.686;2024-01-30T09:45:20;19.92;;;6.53;;
83423;SDS011;73355;49.044;8.686;2024-01-30T09:47:49;12.45;;;6.68;;
83423;SDS011;73355;49.044;8.686;2024-01-30T09:50:15;11.97;;;6.93;;
83423;SDS011;73355;49.044;8.686;2024-01-30T09:52:43;9.95;;;5.88;;
83423;SDS011;73355;49.044;8.686;2024-01-30T09:55:09;10.73;;;5.88;;
83423;SDS011;73355;49.044;8.686;2024-01-30T09:57:35;11.45;;;6.05;;
83423;SDS011;73355;49.044;8.686;2024-01-30T10:00:01;12.20;;;5.50;;
83423;SDS011;73355;49.044;8.686;2024-01-30T10:04:53;9.13;;;4.80;;
83423;SDS011;73355;49.044;8.686;2024-01-30T10:07:18;9.83;;;4.73;;
83423;SDS011;73355;49.044;8.686;2024-01-30T10:09:45;10.38;;;4.90;;
83423;SDS011;73355;49.044;8.686;2024-01-30T10:12:11;8.43;;;4.72;;
83423;SDS011;73355;49.044;8.686;2024-01-30T10:14:40;9.23;;;5.07;;
83423;SDS011;73355;49.044;8.686;2024-01-30T10:17:07;10.82;;;5.13;;
83423;SDS011;73355;49.044;8.686;2024-01-30T10:19:33;11.05;;;5.53;;
83423;SDS011;73355;49.044;8.686;2024-01-30T10:22:02;11.00;;;5.28;;
83423;SDS011;73355;49.044;8.686;2024-01-30T10:24:28;10.38;;;5.45;;
83423;SDS011;73355;49.044;8.686;2024-01-30T10:27:03;10.63;;;5.30;;
83423;SDS011;73355;49.044;8.686;2024-01-30T10:29:30;11.13;;;5.75;;
83423;SDS011;73355;49.044;8.686;2024-01-30T10:34:25;10.18;;;4.95;;
83423;SDS011;73355;49.044;8.686;2024-01-30T10:36:51;9.52;;;5.25;;
83423;SDS011;73355;49.044;8.686;2024-01-30T10:39:26;8.32;;;4.57;;
83423;SDS011;73355;49.044;8.686;2024-01-30T10:41:54;12.13;;;5.63;;
83423;SDS011;73355;49.044;8.686;2024-01-30T10:44:28;9.52;;;4.75;;
83423;SDS011;73355;49.044;8.686;2024-01-30T10:46:59;9.88;;;5.47;;
83423;SDS011;73355;49.044;8.686;2024-01-30T10:49:31;12.07;;;4.78;;
83423;SDS011;73355;49.044;8.686;2024-01-30T10:51:58;10.02;;;4.65;;
83423;SDS011;73355;49.044;8.686;2024-01-30T10:54:23;10.77;;;5.57;;
83423;SDS011;73355;49.044;8.686;2024-01-30T10:56:51;9.70;;;4.72;;
83423;SDS011;73355;49.044;8.686;2024-01-30T10:59:17;10.18;;;5.03;;
83423;SDS011;73355;49.044;8.686;2024-01-30T11:01:46;11.07;;;4.90;;
83423;SDS011;73355;49.044;8.686;2024-01-30T11:04:11;11.18;;;5.20;;
83423;SDS011;73355;49.044;8.686;2024-01-30T11:06:42;11.05;;;5.40;;
83423;SDS011;73355;49.044;8.686;2024-01-30T11:09:10;9.52;;;4.72;;
83423;SDS011;73355;49.044;8.686;2024-01-30T11:11:56;10.50;;;4.85;;
83423;SDS011;73355;49.044;8.686;2024-01-30T11:14:25;12.13;;;5.53;;
83423;SDS011;73355;49.044;8.686;2024-01-30T11:16:51;9.15;;;4.85;;
83423;SDS011;73355;49.044;8.686;2024-01-30T11:19:23;12.55;;;6.30;;
83423;SDS011;73355;49.044;8.686;2024-01-30T11:21:52;11.50;;;6.22;;
83423;SDS011;73355;49.044;8.686;2024-01-30T11:24:27;14.75;;;6.55;;
83423;SDS011;73355;49.044;8.686;2024-01-30T11:26:56;10.50;;;5.80;;
83423;SDS011;73355;49.044;8.686;2024-01-30T11:29:26;12.82;;;6.22;;
83423;SDS011;73355;49.044;8.686;2024-01-30T11:31:53;14.40;;;6.20;;
83423;SDS011;73355;49.044;8.686;2024-01-30T11:36:57;10.57;;;5.30;;
83423;SDS011;73355;49.044;8.686;2024-01-30T11:39:25;8.40;;;5.20;;
83423;SDS011;73355;49.044;8.686;2024-01-30T11:41:54;8.20;;;4.60;;
83423;SDS011;73355;49.044;8.686;2024-01-30T11:44:20;8.20;;;4.63;;
83423;SDS011;73355;49.044;8.686;2024-01-30T11:46:49;10.73;;;4.70;;
83423;SDS011;73355;49.044;8.686;2024-01-30T11:49:14;8.65;;;4.50;;
83423;SDS011;73355;49.044;8.686;2024-01-30T11:51:41;9.02;;;4.50;;
83423;SDS011;73355;49.044;8.686;2024-01-30T11:54:07;9.43;;;4.88;;
83423;SDS011;73355;49.044;8.686;2024-01-30T11:56:32;10.50;;;4.85;;
83423;SDS011;73355;49.044;8.686;2024-01-30T11:58:57;8.67;;;4.40;;
83423;SDS011;73355;49.044;8.686;2024-01-30T12:01:25;9.18;;;4.25;;
83423;SDS011;73355;49.044;8.686;2024-01-30T12:03:52;7.80;;;4.57;;
83423;SDS011;73355;49.044;8.686;2024-01-30T12:06:17;7.65;;;4.53;;
83423;SDS011;73355;49.044;8.686;2024-01-30T12:08:42;8.68;;;4.63;;
83423;SDS011;73355;49.044;8.686;2024-01-30T12:13:34;10.37;;;4.43;;
83423;SDS011;73355;49.044;8.686;2024-01-30T12:16:00;9.27;;;5.10;;
83423;SDS011;73355;49.044;8.686;2024-01-30T12:18:26;9.27;;;4.95;;
83423;SDS011;73355;49.044;8.686;2024-01-30T12:21:00;9.13;;;4.80;;
83423;SDS011;73355;49.044;8.686;2024-01-30T12:23:29;7.05;;;4.47;;
83423;SDS011;73355;49.044;8.686;2024-01-30T12:25:54;8.15;;;4.97;;
83423;SDS011;73355;49.044;8.686;2024-01-30T12:28:20;9.40;;;5.37;;
83423;SDS011;73355;49.044;8.686;2024-01-30T12:30:46;10.25;;;5.50;;
83423;SDS011;73355;49.044;8.686;2024-01-30T12:33:17;10.23;;;5.28;;
83423;SDS011;73355;49.044;8.686;2024-01-30T12:35:46;10.45;;;5.53;;
83423;SDS011;73355;49.044;8.686;2024-01-30T12:38:15;12.73;;;5.78;;
83423;SDS011;73355;49.044;8.686;2024-01-30T12:40:40;12.32;;;5.78;;
83423;SDS011;73355;49.044;8.686;2024-01-30T12:43:06;13.70;;;5.90;;
83423;SDS011;73355;49.044;8.686;2024-01-30T12:45:31;8.85;;;4.93;;
83423;SDS011;73355;49.044;8.686;2024-01-30T12:47:57;11.38;;;5.00;;
83423;SDS011;73355;49.044;8.686;2024-01-30T12:50:23;9.20;;;4.60;;
83423;SDS011;73355;49.044;8.686;2024-01-30T12:52:48;10.90;;;4.82;;
83423;SDS011;73355;49.044;8.686;2024-01-30T12:55:14;7.35;;;4.40;;
83423;SDS011;73355;49.044;8.686;2024-01-30T12:57:39;9.43;;;4.30;;
83423;SDS011;73355;49.044;8.686;2024-01-30T13:00:05;7.20;;;3.90;;
83423;SDS011;73355;49.044;8.686;2024-01-30T13:02:33;8.30;;;3.75;;
83423;SDS011;73355;49.044;8.686;2024-01-30T13:05:02;6.55;;;3.80;;
83423;SDS011;73355;49.044;8.686;2024-01-30T13:07:28;6.47;;;4.25;;
83423;SDS011;73355;49.044;8.686;2024-01-30T13:09:53;4.90;;;3.33;;
83423;SDS011;73355;49.044;8.686;2024-01-30T13:12:19;7.60;;;3.77;;
83423;SDS011;73355;49.044;8.686;2024-01-30T13:14:44;6.35;;;3.55;;
83423;SDS011;73355;49.044;8.686;2024-01-30T13:17:09;7.80;;;3.93;;
83423;SDS011;73355;49.044;8.686;2024-01-30T13:19:35;7.97;;;3.90;;
83423;SDS011;73355;49.044;8.686;2024-01-30T13:22:00;7.57;;;4.40;;
83423;SDS011;73355;49.044;8.686;2024-01-30T13:24:25;8.10;;;4.60;;
83423;SDS011;73355;49.044;8.686;2024-01-30T13:29:18;5.77;;;3.57;;
83423;SDS011;73355;49.044;8.686;2024-01-30T13:31:43;6.57;;;3.70;;
83423;SDS011;73355;49.044;8.686;2024-01-30T13:34:11;7.35;;;4.65;;
83423;SDS011;73355;49.044;8.686;2024-01-30T13:36:36;8.05;;;3.58;;
83423;SDS011;73355;49.044;8.686;2024-01-30T13:39:01;7.23;;;4.17;;
83423;SDS011;73355;49.044;8.686;2024-01-30T13:41:27;8.15;;;3.40;;
83423;SDS011;73355;49.044;8.686;2024-01-30T13:43:54;6.82;;;3.20;;
83423;SDS011;73355;49.044;8.686;2024-01-30T13:46:19;6.07;;;3.53;;
83423;SDS011;73355;49.044;8.686;2024-01-30T13:48:45;7.00;;;3.70;;
83423;SDS011;73355;49.044;8.686;2024-01-30T13:51:10;7.53;;;3.67;;
83423;SDS011;73355;49.044;8.686;2024-01-30T13:53:37;6.13;;;3.88;;
83423;SDS011;73355;49.044;8.686;2024-01-30T13:56:03;5.47;;;3.00;;
83423;SDS011;73355;49.044;8.686;2024-01-30T13:58:28;7.22;;;3.55;;
83423;SDS011;73355;49.044;8.686;2024-01-30T14:00:54;7.27;;;3.57;;
83423;SDS011;73355;49.044;8.686;2024-01-30T14:03:19;6.33;;;3.67;;
83423;SDS011;73355;49.044;8.686;2024-01-30T14:05:45;5.55;;;3.40;;
83423;SDS011;73355;49.044;8.686;2024-01-30T14:08:10;6.47;;;3.40;;
83423;SDS011;73355;49.044;8.686;2024-01-30T14:10:36;4.88;;;2.78;;
83423;SDS011;73355;49.044;8.686;2024-01-30T14:13:01;6.80;;;3.20;;
83423;SDS011;73355;49.044;8.686;2024-01-30T14:15:26;7.40;;;3.55;;
83423;SDS011;73355;49.044;8.686;2024-01-30T14:17:52;6.93;;;3.40;;
83423;SDS011;73355;49.044;8.686;2024-01-30T14:20:17;7.75;;;3.67;;
83423;SDS011;73355;49.044;8.686;2024-01-30T14:22:42;9.37;;;3.97;;
83423;SDS011;73355;49.044;8.686;2024-01-30T14:25:08;8.60;;;4.30;;
83423;SDS011;73355;49.044;8.686;2024-01-30T14:27:34;8.73;;;4.22;;
83423;SDS011;73355;49.044;8.686;2024-01-30T14:32:25;7.27;;;3.40;;
83423;SDS011;73355;49.044;8.686;2024-01-30T14:34:51;7.27;;;3.83;;
83423;SDS011;73355;49.044;8.686;2024-01-30T14:37:17;7.65;;;3.60;;
83423;SDS011;73355;49.044;8.686;2024-01-30T14:39:43;7.50;;;3.97;;
83423;SDS011;73355;49.044;8.686;2024-01-30T14:42:08;8.25;;;4.00;;
83423;SDS011;73355;49.044;8.686;2024-01-30T14:44:33;7.82;;;4.40;;
83423;SDS011;73355;49.044;8.686;2024-01-30T14:46:59;11.77;;;4.67;;
83423;SDS011;73355;49.044;8.686;2024-01-30T14:49:25;10.18;;;4.53;;
83423;SDS011;73355;49.044;8.686;2024-01-30T14:51:50;8.50;;;4.55;;
83423;SDS011;73355;49.044;8.686;2024-01-30T14:54:16;8.38;;;4.20;;
83423;SDS011;73355;49.044;8.686;2024-01-30T14:56:41;9.33;;;4.50;;